Time;durP1;ratioP1;P1;durP2;ratioP2;P2;SDS_P1;SDS_P2;PMS_P1;PMS_P2;Temp;Humidity;BMP_temperature;BMP_pressure;BME280_temperature;BME280_humidity;BME280_pressure;Samples;Min_cycle;Max_cycle;Signal;HPM_P1;HPM_P2
2021/12/03 00:00:09;;;;;;;33.23;25.37;;;19.40;79.30;;;;;;1888624;75;21704;-79
2021/12/03 00:02:42;;;;;;;34.95;24.47;;;19.40;79.60;;;;;;1875986;75;21158;-81
2021/12/03 00:05:19;;;;;;;35.58;26.82;;;19.40;79.30;;;;;;1809194;78;21092;-80
2021/12/03 00:07:54;;;;;;;42.35;26.90;;;19.40;79.30;;;;;;1854874;74;21146;-81
2021/12/03 00:10:27;;;;;;;42.50;30.12;;;19.50;79.70;;;;;;1837559;77;21142;-80
2021/12/03 00:13:06;;;;;;;46.50;29.23;;;19.50;79.60;;;;;;1834436;76;21580;-80
2021/12/03 00:15:45;;;;;;;43.73;27.80;;;19.50;79.30;;;;;;1874836;75;21586;-81
2021/12/03 00:18:27;;;;;;;38.90;25.68;;;19.50;79.20;;;;;;1845915;76;21167;-80
2021/12/03 00:21:01;;;;;;;37.28;24.57;;;19.50;79.00;;;;;;1876321;75;21198;-80
2021/12/03 00:23:33;;;;;;;43.68;25.62;;;19.60;78.40;;;;;;1883252;74;21605;-80
2021/12/03 00:26:05;;;;;;;37.42;25.40;;;19.60;78.10;;;;;;1895273;74;21079;-80
2021/12/03 00:28:37;;;;;;;44.13;26.27;;;19.60;78.30;;;;;;1857794;76;21555;-71
2021/12/03 00:31:09;;;;;;;39.10;25.12;;;19.60;78.40;;;;;;1893175;74;21161;-71
2021/12/03 00:33:40;;;;;;;34.80;23.85;;;19.70;78.70;;;;;;1891606;74;21118;-70
2021/12/03 00:36:12;;;;;;;31.45;22.10;;;19.70;78.10;;;;;;1892040;74;21181;-70
2021/12/03 00:38:47;;;;;;;34.53;22.98;;;19.70;78.20;;;;;;1851051;76;21606;-70
2021/12/03 00:41:20;;;;;;;37.53;22.90;;;19.70;77.80;;;;;;1848522;77;21166;-70
2021/12/03 00:43:53;;;;;;;30.90;20.60;;;19.70;77.50;;;;;;1906734;74;21667;-71
2021/12/03 00:46:24;;;;;;;30.95;21.52;;;19.70;77.20;;;;;;1892602;74;21114;-71
2021/12/03 00:48:56;;;;;;;29.48;21.00;;;19.70;77.10;;;;;;1844359;76;21606;-71
2021/12/03 00:51:27;;;;;;;33.88;20.37;;;19.70;76.90;;;;;;1889720;74;21086;-71
2021/12/03 00:53:58;;;;;;;28.38;21.12;;;19.70;76.40;;;;;;1905825;74;21118;-70
2021/12/03 00:56:29;;;;;;;29.50;20.00;;;19.70;76.70;;;;;;1882272;75;21072;-71
2021/12/03 00:59:00;;;;;;;28.83;20.68;;;19.70;77.00;;;;;;1833852;77;21166;-71
2021/12/03 01:01:30;;;;;;;33.83;21.48;;;19.80;77.00;;;;;;1894835;74;21606;-72
2021/12/03 01:04:02;;;;;;;29.80;20.43;;;19.80;76.70;;;;;;1889737;74;21219;-72
2021/12/03 01:06:33;;;;;;;35.20;21.15;;;19.80;76.50;;;;;;1843079;76;21176;-72
2021/12/03 01:09:05;;;;;;;28.75;19.32;;;19.90;76.60;;;;;;1895160;74;21149;-72
2021/12/03 01:11:35;;;;;;;30.10;20.35;;;19.80;76.10;;;;;;1875666;75;21100;-71
2021/12/03 01:14:07;;;;;;;30.80;19.17;;;19.80;76.10;;;;;;1880704;75;21656;-72
2021/12/03 01:16:38;;;;;;;32.48;20.70;;;19.90;75.80;;;;;;1841530;76;21233;-72
2021/12/03 01:19:10;;;;;;;28.12;19.50;;;19.90;75.90;;;;;;1901265;74;21118;-72
2021/12/03 01:21:41;;;;;;;35.65;19.48;;;20.00;75.70;;;;;;1855804;76;21126;-71
2021/12/03 01:24:17;;;;;;;30.32;20.35;;;20.00;75.20;;;;;;1879467;75;21119;-72
2021/12/03 01:26:53;;;;;;;29.07;19.37;;;20.10;74.50;;;;;;1883424;74;21094;-71
2021/12/03 01:29:20;;;;;;;29.35;19.17;;;20.20;74.30;;;;;;1896575;75;21521;-71
2021/12/03 01:31:53;;;;;;;30.30;18.77;;;20.20;72.90;;;;;;1889843;75;21587;-72
2021/12/03 01:34:25;;;;;;;29.25;19.32;;;20.20;72.70;;;;;;1844975;77;21611;-72
2021/12/03 01:36:57;;;;;;;28.07;18.30;;;20.30;72.80;;;;;;1883036;75;21237;-72
2021/12/03 01:39:29;;;;;;;32.05;18.35;;;20.40;72.00;;;;;;1885137;74;21166;-70
2021/12/03 01:42:03;;;;;;;30.68;18.52;;;20.40;72.10;;;;;;1894123;74;21177;-71
2021/12/03 01:44:36;;;;;;;27.20;17.73;;;20.40;71.80;;;;;;1849815;76;21198;-73
2021/12/03 01:47:07;;;;;;;24.85;16.93;;;20.40;71.00;;;;;;1887465;75;21135;-72
2021/12/03 01:49:44;;;;;;;32.53;17.70;;;20.50;70.60;;;;;;1883457;75;21091;-72
2021/12/03 01:52:12;;;;;;;24.20;16.20;;;20.50;70.50;;;;;;1886104;74;21084;-71
2021/12/03 01:54:49;;;;;;;24.75;16.48;;;20.50;68.90;;;;;;1848254;76;21276;-73
2021/12/03 01:57:17;;;;;;;25.10;18.20;;;20.50;69.40;;;;;;1882850;75;21151;-72
2021/12/03 01:59:50;;;;;;;27.48;18.55;;;20.50;69.40;;;;;;1883322;75;21275;-74
2021/12/03 02:02:23;;;;;;;30.90;16.97;;;20.60;69.50;;;;;;1884252;75;21670;-71
2021/12/03 02:04:59;;;;;;;27.42;16.15;;;20.60;69.20;;;;;;1845174;76;21643;-72
2021/12/03 02:07:30;;;;;;;23.62;14.65;;;20.70;68.80;;;;;;1885057;75;21122;-74
2021/12/03 02:10:01;;;;;;;26.42;14.30;;;20.80;67.90;;;;;;1883731;75;21123;-73
2021/12/03 02:12:32;;;;;;;23.02;15.03;;;20.80;66.90;;;;;;1847922;76;21744;-73
2021/12/03 02:15:04;;;;;;;22.95;14.58;;;20.80;66.60;;;;;;1878589;75;21484;-72
2021/12/03 02:17:35;;;;;;;23.73;14.35;;;20.90;66.90;;;;;;1882018;75;21155;-71
2021/12/03 02:20:10;;;;;;;24.12;13.53;;;20.90;65.90;;;;;;1889376;74;21248;-73
2021/12/03 02:22:42;;;;;;;22.65;13.55;;;21.00;64.60;;;;;;1881289;74;21154;-71
2021/12/03 02:25:15;;;;;;;21.60;13.03;;;21.00;64.00;;;;;;1879756;75;22291;-73
2021/12/03 02:27:46;;;;;;;22.48;13.40;;;21.10;63.20;;;;;;1873316;76;21119;-73
2021/12/03 02:30:18;;;;;;;17.45;12.53;;;21.20;62.70;;;;;;1884005;75;21080;-74
2021/12/03 02:32:51;;;;;;;20.77;11.22;;;21.20;62.00;;;;;;1840407;78;21123;-72
2021/12/03 02:35:24;;;;;;;20.62;12.00;;;21.30;59.60;;;;;;1906061;74;21200;-72
2021/12/03 02:37:59;;;;;;;17.67;11.12;;;21.30;59.20;;;;;;1893372;74;21659;-72
2021/12/03 02:40:41;;;;;;;17.10;10.98;;;21.40;59.50;;;;;;1851089;76;21158;-74
2021/12/03 02:43:18;;;;;;;19.25;11.33;;;21.50;59.50;;;;;;1876770;75;21135;-72
2021/12/03 02:46:04;;;;;;;;;;;;;;;;;;;;;
2021/12/03 02:49:42;;;;;;;20.45;11.30;;;21.60;58.70;;;;;;1828937;76;21103;-71
2021/12/03 02:51:46;;;;;;;;;;;;;;;;;;;;;
2021/12/03 02:57:37;;;;;;;20.12;9.93;;;21.80;56.90;;;;;;1732601;80;21673;-73
2021/12/03 03:00:07;;;;;;;15.30;9.88;;;21.90;56.70;;;;;;1799326;79;21258;-73
2021/12/03 03:03:07;;;;;;;16.00;9.43;;;22.00;55.30;;;;;;1690820;83;21207;-74
2021/12/03 03:20:21;;;;;;;16.80;10.20;;;22.20;55.50;;;;;;1956802;72;22688;-69
2021/12/03 03:22:53;;;;;;;18.92;10.00;;;22.60;52.70;;;;;;1892811;75;21118;-70
2021/12/03 03:25:23;;;;;;;19.95;9.93;;;22.70;53.30;;;;;;1882461;75;21200;-72
2021/12/03 03:27:54;;;;;;;16.90;8.98;;;22.70;53.20;;;;;;1913154;75;21708;-72
2021/12/03 03:30:25;;;;;;;14.68;9.35;;;22.90;52.50;;;;;;1911535;73;21259;-71
2021/12/03 03:32:57;;;;;;;16.82;9.13;;;23.00;53.00;;;;;;1916998;73;21126;-71
2021/12/03 03:35:27;;;;;;;14.35;9.08;;;23.10;51.30;;;;;;1911674;73;21604;-72
2021/12/03 03:37:59;;;;;;;15.90;8.50;;;23.20;52.10;;;;;;1915764;74;21613;-70
2021/12/03 03:40:31;;;;;;;15.48;8.60;;;23.30;52.50;;;;;;1917983;73;21229;-71
2021/12/03 03:43:04;;;;;;;11.80;8.10;;;23.30;51.20;;;;;;1918236;73;21996;-71
2021/12/03 03:45:36;;;;;;;15.80;8.33;;;23.40;51.00;;;;;;1887814;75;21204;-72
2021/12/03 03:48:07;;;;;;;13.95;8.23;;;23.50;50.30;;;;;;1889942;75;21071;-71
2021/12/03 03:50:39;;;;;;;18.35;8.43;;;23.50;50.30;;;;;;1915140;73;21194;-72
2021/12/03 03:53:10;;;;;;;13.65;8.73;;;23.70;51.30;;;;;;1914335;73;21154;-71
2021/12/03 03:55:40;;;;;;;16.70;8.43;;;23.70;50.70;;;;;;1918302;73;21069;-73
2021/12/03 03:58:11;;;;;;;17.70;8.10;;;23.90;50.40;;;;;;1913965;73;21637;-72
2021/12/03 04:00:44;;;;;;;14.03;7.83;;;23.90;49.90;;;;;;1914217;73;21120;-72
2021/12/03 04:03:15;;;;;;;13.43;8.33;;;24.10;50.70;;;;;;1913678;73;21104;-71
2021/12/03 04:05:46;;;;;;;17.60;8.95;;;24.10;49.50;;;;;;1911748;75;21108;-72
2021/12/03 04:08:19;;;;;;;14.93;8.88;;;24.30;49.70;;;;;;1910897;73;21124;-72
2021/12/03 04:10:51;;;;;;;17.48;9.38;;;24.40;49.80;;;;;;1914548;73;21061;-75
2021/12/03 04:13:21;;;;;;;16.90;8.60;;;24.50;48.70;;;;;;1911349;73;21127;-72
2021/12/03 04:15:53;;;;;;;16.02;8.53;;;24.60;48.70;;;;;;1912707;73;21163;-72
2021/12/03 04:18:24;;;;;;;11.65;8.75;;;24.70;48.80;;;;;;1917338;73;21627;-71
2021/12/03 04:20:55;;;;;;;14.15;8.63;;;24.80;47.60;;;;;;1911934;73;21811;-73
2021/12/03 04:23:30;;;;;;;17.15;9.20;;;24.90;48.10;;;;;;1908194;73;21136;-72
2021/12/03 04:26:00;;;;;;;15.28;9.13;;;24.90;48.00;;;;;;1904827;73;21229;-72
2021/12/03 04:28:31;;;;;;;14.23;8.95;;;25.00;47.40;;;;;;1907146;73;21146;-71
2021/12/03 04:31:03;;;;;;;17.90;8.43;;;25.10;47.90;;;;;;1910565;73;21532;-70
2021/12/03 04:33:34;;;;;;;15.93;8.20;;;25.10;49.10;;;;;;1909624;73;21140;-73
2021/12/03 04:36:06;;;;;;;13.32;8.43;;;25.20;47.00;;;;;;1873085;75;21701;-71
2021/12/03 04:38:37;;;;;;;17.05;7.90;;;25.30;45.50;;;;;;1944208;73;21825;-71
2021/12/03 04:41:08;;;;;;;17.12;8.43;;;25.40;45.00;;;;;;1912262;73;21214;-72
2021/12/03 04:43:39;;;;;;;16.55;8.60;;;25.40;44.60;;;;;;1918036;73;21145;-71
2021/12/03 04:46:09;;;;;;;13.62;8.50;;;25.40;44.50;;;;;;1915061;73;21171;-72
2021/12/03 04:48:40;;;;;;;15.95;8.28;;;25.40;44.90;;;;;;1913940;73;21092;-72
2021/12/03 04:51:11;;;;;;;14.00;8.73;;;25.40;44.80;;;;;;1917099;74;21262;-70
2021/12/03 04:53:42;;;;;;;14.73;8.43;;;25.50;43.90;;;;;;1920889;73;21816;-70
2021/12/03 04:56:14;;;;;;;17.82;8.55;;;25.60;44.20;;;;;;1933923;73;21669;-72
2021/12/03 04:58:45;;;;;;;19.50;8.20;;;25.70;44.00;;;;;;1915074;73;21116;-70
2021/12/03 05:01:16;;;;;;;13.43;7.92;;;25.80;42.00;;;;;;1919476;73;21161;-71
2021/12/03 05:03:47;;;;;;;16.15;8.93;;;25.80;40.70;;;;;;1911349;73;21201;-72
2021/12/03 05:06:29;;;;;;;17.02;8.23;;;25.90;42.50;;;;;;1914585;73;21575;-73
2021/12/03 05:08:51;;;;;;;21.02;8.43;;;25.90;42.40;;;;;;1922115;73;21155;-72
2021/12/03 05:11:21;;;;;;;11.57;8.25;;;26.00;41.40;;;;;;1929489;73;21629;-72
2021/12/03 05:13:52;;;;;;;17.57;8.83;;;26.10;43.70;;;;;;1921642;73;21548;-71
2021/12/03 05:16:23;;;;;;;15.32;8.60;;;26.20;42.70;;;;;;1913375;73;21120;-70
2021/12/03 05:18:54;;;;;;;21.00;8.83;;;26.20;42.30;;;;;;1917768;73;21041;-71
2021/12/03 05:21:26;;;;;;;16.12;8.80;;;26.30;41.20;;;;;;1922154;73;21615;-71
2021/12/03 05:23:59;;;;;;;14.93;9.65;;;26.30;41.00;;;;;;1917688;73;21143;-72
2021/12/03 05:26:33;;;;;;;15.78;8.63;;;26.30;40.40;;;;;;1914444;73;21123;-72
2021/12/03 05:29:05;;;;;;;15.25;7.87;;;26.40;40.10;;;;;;1920403;73;21151;-72
2021/12/03 05:31:37;;;;;;;13.40;8.68;;;26.40;40.40;;;;;;1923531;73;21112;-71
2021/12/03 05:34:13;;;;;;;14.15;7.95;;;26.50;39.50;;;;;;1916379;73;21135;-72
2021/12/03 05:36:46;;;;;;;14.95;7.42;;;26.50;41.60;;;;;;1873258;74;21618;-72
2021/12/03 05:39:17;;;;;;;15.90;7.45;;;26.60;41.40;;;;;;1881948;75;21667;-70
2021/12/03 05:41:47;;;;;;;12.07;6.58;;;26.70;41.10;;;;;;1881293;74;21157;-71
2021/12/03 05:44:20;;;;;;;10.45;6.70;;;26.70;40.10;;;;;;1879065;74;21097;-69
2021/12/03 05:46:53;;;;;;;15.68;7.47;;;26.80;39.80;;;;;;1887601;74;21168;-71
2021/12/03 05:49:25;;;;;;;15.78;8.23;;;26.90;41.60;;;;;;1881482;76;21579;-72
2021/12/03 05:51:56;;;;;;;18.32;7.45;;;26.90;41.00;;;;;;1875351;76;21102;-71
2021/12/03 05:54:28;;;;;;;11.33;7.35;;;26.90;39.80;;;;;;1897117;74;21157;-71
2021/12/03 05:57:04;;;;;;;12.58;7.35;;;26.90;38.60;;;;;;1877570;75;21119;-70
2021/12/03 05:59:35;;;;;;;15.30;7.20;;;27.00;38.70;;;;;;1876834;76;21179;-71
2021/12/03 06:02:06;;;;;;;16.85;6.87;;;27.00;37.50;;;;;;1884349;75;21120;-71
2021/12/03 06:04:38;;;;;;;10.45;6.37;;;27.00;37.20;;;;;;1883099;74;22287;-71
2021/12/03 06:07:09;;;;;;;13.60;6.90;;;27.00;36.60;;;;;;1875405;74;22033;-72
2021/12/03 06:09:41;;;;;;;14.78;7.08;;;27.00;36.80;;;;;;1895188;74;21606;-74
2021/12/03 06:12:12;;;;;;;14.47;7.25;;;27.00;36.60;;;;;;1882246;74;21197;-73
2021/12/03 06:14:43;;;;;;;15.45;7.25;;;27.10;37.30;;;;;;1899148;74;21191;-73
2021/12/03 06:17:19;;;;;;;11.78;7.40;;;27.10;38.00;;;;;;1832143;77;21139;-74
2021/12/03 06:19:47;;;;;;;11.83;6.55;;;27.10;37.40;;;;;;1823604;77;21576;-74
2021/12/03 06:22:17;;;;;;;17.45;7.17;;;27.10;37.50;;;;;;1868526;75;21237;-72
2021/12/03 06:24:48;;;;;;;11.20;6.60;;;27.10;36.60;;;;;;1888417;74;21536;-69
2021/12/03 06:27:19;;;;;;;17.17;7.47;;;27.10;35.50;;;;;;1886606;74;21618;-72
2021/12/03 06:29:50;;;;;;;12.05;6.60;;;27.10;37.10;;;;;;1883142;75;21163;-71
2021/12/03 06:32:21;;;;;;;11.88;6.87;;;27.10;36.70;;;;;;1881121;74;21134;-70
2021/12/03 06:34:52;;;;;;;13.43;6.87;;;27.10;36.70;;;;;;1881991;74;21571;-71
2021/12/03 06:37:24;;;;;;;11.22;6.70;;;27.20;35.90;;;;;;1877143;75;21201;-72
2021/12/03 06:39:55;;;;;;;14.53;6.65;;;27.20;35.90;;;;;;1883667;74;21088;-71
2021/12/03 06:42:46;;;;;;;14.87;6.72;;;27.20;35.60;;;;;;1875601;74;21745;-70
2021/12/03 06:45:18;;;;;;;11.45;6.10;;;27.30;34.60;;;;;;1823631;77;21649;-72
2021/12/03 06:47:49;;;;;;;12.15;5.60;;;27.30;35.40;;;;;;1825655;77;21153;-71
2021/12/03 06:50:23;;;;;;;10.58;5.95;;;27.30;35.30;;;;;;1828765;77;21184;-71
2021/12/03 06:53:15;;;;;;;11.28;5.03;;;27.30;34.70;;;;;;1828248;77;21152;-72
2021/12/03 06:55:36;;;;;;;13.80;5.70;;;27.30;36.10;;;;;;1824319;77;21134;-72
2021/12/03 06:58:01;;;;;;;12.07;5.75;;;27.30;36.40;;;;;;1824890;77;21068;-71
2021/12/03 07:00:32;;;;;;;10.15;6.08;;;27.30;35.10;;;;;;1825898;77;21094;-71
2021/12/03 07:03:03;;;;;;;13.90;6.55;;;27.40;35.70;;;;;;1791654;78;21167;-72
2021/12/03 07:05:34;;;;;;;9.95;6.00;;;27.40;33.70;;;;;;1770444;80;21108;-71
2021/12/03 07:08:06;;;;;;;11.85;6.10;;;27.40;34.80;;;;;;1827603;77;21201;-71
2021/12/03 07:10:38;;;;;;;13.25;6.15;;;27.40;34.00;;;;;;1823741;78;21181;-70
2021/12/03 07:13:09;;;;;;;11.20;6.35;;;27.40;34.30;;;;;;1827258;77;21570;-71
2021/12/03 07:15:40;;;;;;;12.50;6.17;;;27.30;35.90;;;;;;1824389;77;21161;-71
2021/12/03 07:18:11;;;;;;;11.93;5.87;;;27.30;35.60;;;;;;1825369;78;21130;-71
2021/12/03 07:20:42;;;;;;;10.48;5.92;;;27.30;35.00;;;;;;1826814;77;21189;-70
2021/12/03 07:23:13;;;;;;;15.60;7.03;;;27.30;35.30;;;;;;1822979;78;21079;-70
2021/12/03 07:25:44;;;;;;;14.93;6.75;;;27.30;35.80;;;;;;1825508;78;21271;-71
2021/12/03 07:28:16;;;;;;;11.20;6.33;;;27.40;34.40;;;;;;1822961;78;21637;-71
2021/12/03 07:30:47;;;;;;;10.65;5.67;;;27.40;35.50;;;;;;1827335;77;21208;-71
2021/12/03 07:33:20;;;;;;;11.75;6.33;;;27.40;35.20;;;;;;1825678;77;21196;-71
2021/12/03 07:35:52;;;;;;;13.30;6.53;;;27.40;35.10;;;;;;1826307;78;21184;-72
2021/12/03 07:38:23;;;;;;;11.50;6.35;;;27.40;35.90;;;;;;1828196;77;21609;-71
2021/12/03 07:40:54;;;;;;;10.98;6.70;;;27.30;35.40;;;;;;1828216;77;21189;-71
2021/12/03 07:43:25;;;;;;;11.33;6.60;;;27.40;34.80;;;;;;1827106;77;21134;-72
2021/12/03 07:45:56;;;;;;;12.98;6.15;;;27.40;35.30;;;;;;1823766;77;21165;-72
2021/12/03 07:48:27;;;;;;;11.80;7.80;;;27.40;35.00;;;;;;1827671;77;21574;-73
2021/12/03 07:50:59;;;;;;;15.88;7.95;;;27.40;35.20;;;;;;1824332;77;21672;-72
2021/12/03 07:53:30;;;;;;;12.82;7.17;;;27.40;35.00;;;;;;1826691;77;21561;-72
2021/12/03 07:56:04;;;;;;;9.28;6.25;;;27.40;35.70;;;;;;1828980;77;21166;-71
2021/12/03 07:58:35;;;;;;;9.60;5.90;;;27.40;35.80;;;;;;1832875;77;21171;-71
2021/12/03 08:01:06;;;;;;;12.10;6.47;;;27.40;35.60;;;;;;1826700;78;21205;-71
2021/12/03 08:03:40;;;;;;;10.18;6.30;;;27.40;35.30;;;;;;1827416;77;21086;-71
2021/12/03 08:06:12;;;;;;;12.00;6.03;;;27.40;35.00;;;;;;1847681;77;21173;-73
2021/12/03 08:08:43;;;;;;;12.45;5.58;;;27.40;35.30;;;;;;1829950;77;21216;-72
2021/12/03 08:11:14;;;;;;;13.08;5.83;;;27.30;34.70;;;;;;1834717;78;21094;-71
2021/12/03 08:13:46;;;;;;;11.53;6.22;;;27.30;35.00;;;;;;1832115;78;21227;-71
2021/12/03 08:16:17;;;;;;;11.50;5.80;;;27.30;34.60;;;;;;1835128;77;21174;-71
2021/12/03 08:18:48;;;;;;;15.00;6.25;;;27.30;36.20;;;;;;1827388;77;21177;-71
2021/12/03 08:21:19;;;;;;;11.80;6.28;;;27.30;34.50;;;;;;1830073;77;21169;-71
2021/12/03 08:23:51;;;;;;;13.08;5.53;;;27.30;33.30;;;;;;1795026;80;21211;-71
2021/12/03 08:26:21;;;;;;;10.10;5.42;;;27.20;31.70;;;;;;1836336;77;21879;-71
2021/12/03 08:28:52;;;;;;;11.85;5.78;;;27.30;30.80;;;;;;1837265;77;21122;-71
2021/12/03 08:31:23;;;;;;;10.48;5.67;;;27.20;30.00;;;;;;1827417;77;21126;-71
2021/12/03 08:33:54;;;;;;;11.95;5.47;;;27.20;32.10;;;;;;1842529;77;21138;-71
2021/12/03 08:36:25;;;;;;;8.53;5.17;;;27.20;31.50;;;;;;1825458;78;21789;-72
2021/12/03 08:38:56;;;;;;;11.20;5.67;;;27.20;31.10;;;;;;1790273;79;21112;-71
2021/12/03 08:41:27;;;;;;;10.85;6.28;;;27.20;30.50;;;;;;1767989;80;21157;-72
2021/12/03 08:43:58;;;;;;;9.70;6.10;;;27.20;31.90;;;;;;1816864;77;21245;-72
2021/12/03 08:46:33;;;;;;;8.48;5.83;;;27.10;31.10;;;;;;1826321;77;21165;-72
2021/12/03 08:56:44;;;;;;;11.78;5.70;;;27.10;32.30;;;;;;1862953;77;21154;-71
2021/12/03 08:59:15;;;;;;;10.82;6.05;;;27.00;31.00;;;;;;1857001;77;21115;-71
2021/12/03 09:01:46;;;;;;;14.13;5.67;;;27.00;29.60;;;;;;1828301;77;21283;-72
2021/12/03 09:04:18;;;;;;;12.93;6.35;;;27.00;30.50;;;;;;1839981;76;21245;-71
2021/12/03 09:06:49;;;;;;;11.53;5.67;;;27.00;31.20;;;;;;1834665;77;21133;-72
2021/12/03 09:09:19;;;;;;;8.70;5.58;;;27.00;30.20;;;;;;1835336;77;21134;-73
2021/12/03 09:11:51;;;;;;;11.43;6.37;;;27.00;29.40;;;;;;1824177;77;21165;-73
2021/12/03 09:17:27;;;;;;;11.83;5.65;;;26.90;29.70;;;;;;1844431;77;21174;-73
2021/12/03 09:19:37;;;;;;;10.48;5.47;;;26.80;30.60;;;;;;1826896;77;21134;-72
2021/12/03 09:22:06;;;;;;;12.88;5.87;;;26.80;31.30;;;;;;1831013;76;21169;-71
2021/12/03 09:24:38;;;;;;;9.25;5.58;;;26.80;31.60;;;;;;1839087;76;21146;-72
2021/12/03 09:27:09;;;;;;;10.43;5.72;;;26.70;31.40;;;;;;1834912;77;21209;-72
2021/12/03 09:29:42;;;;;;;10.35;5.67;;;26.70;30.90;;;;;;1840201;76;21228;-73
2021/12/03 09:32:20;;;;;;;10.45;6.70;;;26.70;32.30;;;;;;1833046;77;21173;-72
2021/12/03 09:34:44;;;;;;;11.57;6.70;;;26.70;32.40;;;;;;1830302;77;21668;-71
2021/12/03 09:37:15;;;;;;;12.07;8.25;;;26.60;32.20;;;;;;1846669;77;21530;-72
2021/12/03 09:39:46;;;;;;;12.93;6.95;;;26.60;32.40;;;;;;1850981;77;21153;-71
2021/12/03 09:42:19;;;;;;;8.40;5.90;;;26.60;32.40;;;;;;1828672;77;21197;-71
2021/12/03 09:44:51;;;;;;;12.65;6.28;;;26.50;32.50;;;;;;1822144;77;21158;-71
2021/12/03 09:47:22;;;;;;;12.85;6.30;;;26.40;32.50;;;;;;1813024;77;21193;-70
2021/12/03 09:49:55;;;;;;;8.60;5.50;;;26.40;33.40;;;;;;1825878;77;21095;-71
2021/12/03 09:52:29;;;;;;;12.35;6.50;;;26.30;32.40;;;;;;1836862;77;21121;-70
2021/12/03 09:55:05;;;;;;;8.65;5.03;;;26.30;33.10;;;;;;1847264;77;21136;-72
2021/12/03 09:57:40;;;;;;;11.40;6.35;;;26.20;32.70;;;;;;1817641;77;21164;-71
2021/12/03 10:00:21;;;;;;;9.58;5.95;;;26.20;33.40;;;;;;1831010;77;21865;-82
2021/12/03 10:05:36;;;;;;;10.65;5.50;;;26.10;33.60;;;;;;1793120;80;21172;-83
2021/12/03 10:08:50;;;;;;;9.95;6.03;;;26.10;33.00;;;;;;1791261;80;21157;-86
2021/12/03 10:10:45;;;;;;;13.53;7.78;;;26.00;33.80;;;;;;1793953;78;21229;-85
2021/12/03 10:36:19;;;;;;;19.85;8.48;;;25.60;36.20;;;;;;1832007;77;21153;-82
2021/12/03 10:44:06;;;;;;;19.25;9.88;;;25.50;37.40;;;;;;1826943;77;21115;-83
2021/12/03 10:46:32;;;;;;;19.92;10.20;;;25.50;37.50;;;;;;1823550;77;21830;-83
2021/12/03 11:02:22;;;;;;;19.70;10.65;;;25.20;38.80;;;;;;1803648;77;21043;-82
2021/12/03 11:43:26;;;;;;;33.95;20.25;;;24.50;41.20;;;;;;1793269;80;21102;-81
2021/12/03 12:35:09;;;;;;;35.23;16.93;;;23.60;43.00;;;;;;1785310;78;21568;-84
2021/12/03 12:38:06;;;;;;;29.42;15.75;;;23.60;43.20;;;;;;1825124;78;21127;-83
2021/12/03 12:40:17;;;;;;;26.75;15.60;;;23.50;43.30;;;;;;1807537;77;21115;-83
2021/12/03 12:42:46;;;;;;;26.48;15.50;;;23.50;43.50;;;;;;1821097;78;21178;-84
2021/12/03 13:03:46;;;;;;;24.57;15.68;;;23.20;45.30;;;;;;1833110;77;21577;-83
2021/12/03 13:10:48;;;;;;;28.05;16.62;;;23.10;46.60;;;;;;1813822;77;21185;-81
2021/12/03 13:26:26;;;;;;;32.55;17.02;;;22.90;47.30;;;;;;1829350;78;21109;-77
2021/12/03 13:28:41;;;;;;;32.65;17.60;;;22.80;47.70;;;;;;1833570;76;21137;-75
2021/12/03 14:07:31;;;;;;;30.82;16.73;;;22.80;48.30;;;;;;1818471;78;21793;-77
2021/12/03 14:09:54;;;;;;;30.17;16.45;;;22.80;48.50;;;;;;1822140;78;21735;-80
2021/12/03 14:21:05;;;;;;;31.02;16.57;;;22.80;49.20;;;;;;1811224;79;21576;-75
2021/12/03 14:55:53;;;;;;;31.87;17.60;;;22.50;51.60;;;;;;1806990;79;21171;-75
2021/12/03 14:58:33;;;;;;;28.60;18.02;;;22.50;51.70;;;;;;1810962;79;21631;-78
2021/12/03 15:01:10;;;;;;;31.42;18.70;;;22.50;51.80;;;;;;1787633;79;21190;-78
2021/12/03 15:08:58;;;;;;;34.55;19.32;;;22.30;52.60;;;;;;1809749;79;21159;-79
2021/12/03 15:29:37;;;;;;;40.33;20.80;;;22.00;55.60;;;;;;1813232;79;21167;-80
2021/12/03 15:34:21;;;;;;;33.90;20.52;;;21.90;56.40;;;;;;1814073;78;21559;-82
2021/12/03 15:52:02;;;;;;;37.42;21.35;;;21.80;57.80;;;;;;1809880;79;21564;-81
2021/12/03 15:57:15;;;;;;;39.20;20.37;;;21.70;57.50;;;;;;1810824;79;21249;-79
2021/12/03 16:08:07;;;;;;;32.58;19.65;;;21.50;58.20;;;;;;1783780;79;21279;-80
2021/12/03 16:10:27;;;;;;;33.40;19.30;;;21.50;58.50;;;;;;1793150;78;21100;-79
2021/12/03 16:20:33;;;;;;;34.58;19.50;;;21.40;60.50;;;;;;1779641;79;21096;-79
2021/12/03 16:53:23;;;;;;;30.40;19.10;;;21.00;62.60;;;;;;1833758;78;21174;-79
2021/12/03 16:55:58;;;;;;;32.03;19.15;;;21.00;63.20;;;;;;1827352;78;21186;-79
2021/12/03 16:58:20;;;;;;;35.88;20.55;;;20.90;63.90;;;;;;1825515;78;21190;-80
2021/12/03 17:03:30;;;;;;;32.38;18.42;;;20.90;64.90;;;;;;1827355;78;21158;-79
2021/12/03 17:56:47;;;;;;;32.93;19.45;;;20.40;69.90;;;;;;1824864;77;21774;-79
2021/12/03 17:59:22;;;;;;;33.40;19.20;;;20.40;70.10;;;;;;1825639;78;21304;-78
2021/12/03 18:50:40;;;;;;;28.57;18.00;;;19.90;72.80;;;;;;1803280;78;21174;-79
2021/12/03 18:57:48;;;;;;;35.43;20.57;;;19.80;73.40;;;;;;1816144;78;21678;-78
2021/12/03 19:00:18;;;;;;;29.00;18.77;;;19.90;73.40;;;;;;1800163;80;21165;-79
2021/12/03 19:02:51;;;;;;;30.32;18.40;;;19.80;73.00;;;;;;1809164;78;21196;-79
2021/12/03 19:10:30;;;;;;;35.45;22.02;;;19.80;72.70;;;;;;1804268;77;21134;-79
2021/12/03 19:13:06;;;;;;;29.92;20.95;;;19.80;72.60;;;;;;1804181;79;21294;-79
2021/12/03 19:15:34;;;;;;;33.60;21.35;;;19.70;73.00;;;;;;1804612;78;21212;-80
2021/12/03 19:18:05;;;;;;;35.40;21.05;;;19.70;72.90;;;;;;1806176;78;21173;-78
2021/12/03 19:20:41;;;;;;;37.03;20.57;;;19.70;73.00;;;;;;1816082;78;21153;-79
2021/12/03 19:23:11;;;;;;;35.52;20.60;;;19.70;73.10;;;;;;1774123;81;21156;-78
2021/12/03 19:25:42;;;;;;;32.03;19.27;;;19.70;73.20;;;;;;1779350;80;21095;-79
2021/12/03 19:28:13;;;;;;;38.00;19.87;;;19.70;73.40;;;;;;1797567;79;21170;-79
2021/12/03 19:30:44;;;;;;;30.12;19.48;;;19.60;73.20;;;;;;1794379;80;22361;-79
2021/12/03 19:33:35;;;;;;;33.90;20.02;;;19.60;73.20;;;;;;1780898;79;21692;-78
2021/12/03 19:36:06;;;;;;;31.20;20.72;;;19.60;73.40;;;;;;1796186;78;21248;-80
2021/12/03 19:38:40;;;;;;;30.37;20.23;;;19.60;73.50;;;;;;1795717;80;21551;-79
2021/12/03 19:41:16;;;;;;;33.83;20.25;;;19.50;73.70;;;;;;1770390;78;21597;-79
2021/12/03 19:43:48;;;;;;;31.60;20.37;;;19.50;73.70;;;;;;1763706;81;21158;-79
2021/12/03 19:46:25;;;;;;;29.27;19.27;;;19.50;73.80;;;;;;1801277;79;21243;-79
2021/12/03 19:51:27;;;;;;;30.50;20.12;;;19.50;73.70;;;;;;1831452;78;21622;-79
2021/12/03 19:53:59;;;;;;;32.48;19.82;;;19.40;74.00;;;;;;1834211;78;21629;-79
2021/12/03 19:56:33;;;;;;;35.15;21.07;;;19.40;74.00;;;;;;1821422;78;21176;-78
2021/12/03 19:59:05;;;;;;;38.02;20.08;;;19.40;74.20;;;;;;1803163;79;21890;-79
2021/12/03 20:01:37;;;;;;;28.23;19.32;;;19.40;74.20;;;;;;1804642;78;21261;-80
2021/12/03 20:04:09;;;;;;;32.83;19.82;;;19.40;74.20;;;;;;1803759;79;21266;-80
2021/12/03 20:06:43;;;;;;;33.45;19.65;;;19.40;74.30;;;;;;1775226;81;21144;-80
2021/12/03 20:09:19;;;;;;;29.55;18.82;;;19.40;74.20;;;;;;1775813;78;21179;-79
2021/12/03 20:11:53;;;;;;;32.00;20.05;;;19.30;74.00;;;;;;1806532;78;21215;-79
2021/12/03 20:14:21;;;;;;;31.65;19.20;;;19.30;75.00;;;;;;1805477;78;21624;-79
2021/12/03 20:17:07;;;;;;;30.45;18.07;;;19.30;74.10;;;;;;1805931;79;21552;-79
2021/12/03 20:19:37;;;;;;;34.10;20.05;;;19.30;74.10;;;;;;1802814;79;21212;-80
2021/12/03 20:22:11;;;;;;;29.50;18.15;;;19.30;74.10;;;;;;1803984;78;21187;-79
2021/12/03 20:27:15;;;;;;;31.97;19.73;;;19.30;73.80;;;;;;1815507;78;21625;-80
2021/12/03 20:29:52;;;;;;;32.85;20.10;;;19.30;73.80;;;;;;1804304;78;21083;-79
2021/12/03 20:37:27;;;;;;;30.00;21.15;;;19.20;73.80;;;;;;1818228;78;21692;-80
2021/12/03 20:39:55;;;;;;;30.92;20.12;;;19.20;74.10;;;;;;1826482;77;21194;-79
2021/12/03 20:42:31;;;;;;;32.45;18.82;;;19.10;73.10;;;;;;1833261;78;21606;-79
2021/12/03 21:10:24;;;;;;;30.60;18.82;;;18.80;75.40;;;;;;1831349;78;21674;-79
2021/12/03 21:12:55;;;;;;;27.65;17.82;;;18.80;74.40;;;;;;1834372;78;21532;-79
2021/12/03 21:15:32;;;;;;;32.75;18.45;;;18.80;74.70;;;;;;1802850;79;21115;-80
2021/12/03 21:18:14;;;;;;;34.85;20.08;;;18.80;74.60;;;;;;1771891;80;21875;-80
2021/12/03 21:20:34;;;;;;;35.48;19.27;;;18.80;74.40;;;;;;1800283;79;21248;-80
2021/12/03 21:23:06;;;;;;;31.42;19.90;;;18.80;74.40;;;;;;1756725;81;21181;-79
2021/12/03 21:25:36;;;;;;;32.65;20.08;;;18.80;74.40;;;;;;1786916;78;21252;-79
2021/12/03 21:38:40;;;;;;;31.05;20.95;;;18.70;74.30;;;;;;1744106;81;21617;-79
2021/12/03 21:43:28;;;;;;;36.33;22.27;;;18.70;74.40;;;;;;1773682;78;21206;-80